Time;durP1;ratioP1;P1;durP2;ratioP2;P2;SDS_P1;SDS_P2;PMS_P1;PMS_P2;Temp;Humidity;BMP_temperature;BMP_pressure;BME280_temperature;BME280_humidity;BME280_pressure;Samples;Min_cycle;Max_cycle;Signal;HPM_P1;HPM_P2
2024/01/01 00:00:55;;;;;;;;;;;;;;;6.57;64.73;97159.50;5100095;28;19920;-62
2024/01/01 00:03:44;;;;;;;;;;;;;;;6.48;65.50;97169.41;5088146;28;19919;-62
2024/01/01 00:06:32;;;;;;;;;;;;;;;6.49;65.32;97156.69;5099880;28;19923;-62
2024/01/01 00:09:20;;;;;;;;;;;;;;;6.62;64.58;97155.88;5106148;27;19927;-63
2024/01/01 00:12:10;;;;;;;;;;;;;;;6.62;64.55;97155.09;5103334;28;19965;-62
2024/01/01 00:14:58;;;;;;;;;;;;;;;6.68;64.45;97164.66;5101241;28;19919;-63
2024/01/01 00:17:46;;;;;;;;;;;;;;;6.68;64.18;97162.75;5093765;28;20049;-62
2024/01/01 00:20:34;;;;;;;;;;;;;;;6.02;66.21;97153.38;5098466;28;19932;-63
2024/01/01 00:23:22;;;;;;;;;;;;;;;6.29;65.89;97156.03;5101359;27;19929;-63
2024/01/01 00:26:11;;;;;;;;;;;;;;;6.39;65.45;97159.59;5106545;28;19927;-62
2024/01/01 00:29:01;;;;;;;;;;;;;;;6.51;64.87;97162.59;5104475;28;19931;-62
2024/01/01 00:31:49;;;;;;;;;;;;;;;6.29;65.55;97153.34;5098268;28;19934;-62
2024/01/01 00:34:38;;;;;;;;;;;;;;;6.14;66.12;97150.97;5100020;28;20328;-62
2024/01/01 00:37:26;;;;;;;;;;;;;;;6.10;66.94;97151.84;5100696;28;20460;-62
2024/01/01 00:40:15;;;;;;;;;;;;;;;6.15;66.06;97146.38;5101254;28;19982;-62
2024/01/01 00:43:03;;;;;;;;;;;;;;;6.07;66.35;97136.28;5099380;28;19931;-63
2024/01/01 00:45:52;;;;;;;;;;;;;;;6.15;66.37;97141.75;5115459;28;19920;-62
2024/01/01 00:48:40;;;;;;;;;;;;;;;6.25;65.99;97144.25;5088937;28;19919;-63
2024/01/01 00:51:29;;;;;;;;;;;;;;;6.14;66.50;97142.88;5091079;28;20276;-62
2024/01/01 00:54:17;;;;;;;;;;;;;;;6.01;66.70;97143.66;5093514;28;19999;-62
2024/01/01 00:57:05;;;;;;;;;;;;;;;5.89;67.49;97144.13;5106109;28;19919;-63
2024/01/01 00:59:53;;;;;;;;;;;;;;;5.78;67.28;97148.13;5105782;28;20452;-63
2024/01/01 01:02:43;;;;;;;;;;;;;;;5.86;66.78;97144.75;5104719;28;19924;-62
2024/01/01 01:05:31;;;;;;;;;;;;;;;5.79;67.37;97155.91;5103324;28;19935;-62
2024/01/01 01:08:19;;;;;;;;;;;;;;;5.76;67.34;97145.75;5091608;28;19923;-62
2024/01/01 01:11:07;;;;;;;;;;;;;;;6.00;67.00;97150.16;5093268;28;20273;-63
2024/01/01 01:13:56;;;;;;;;;;;;;;;5.95;66.96;97147.56;5105178;28;20312;-62
2024/01/01 01:16:45;;;;;;;;;;;;;;;6.00;66.53;97150.97;5103405;28;19920;-62
2024/01/01 01:19:35;;;;;;;;;;;;;;;5.85;67.58;97155.81;5107217;28;20596;-63
2024/01/01 01:22:23;;;;;;;;;;;;;;;5.86;67.62;97171.72;5084298;28;19939;-62
2024/01/01 01:25:12;;;;;;;;;;;;;;;5.96;66.98;97178.81;5110136;28;19920;-62
2024/01/01 01:28:00;;;;;;;;;;;;;;;5.88;67.35;97174.91;5095241;28;19923;-62
2024/01/01 01:30:48;;;;;;;;;;;;;;;5.87;67.59;97172.50;5095946;27;19938;-62
2024/01/01 01:33:37;;;;;;;;;;;;;;;5.77;67.80;97173.50;5103446;27;20012;-62
2024/01/01 01:36:26;;;;;;;;;;;;;;;5.84;67.74;97173.09;5106409;27;19943;-62
2024/01/01 01:39:14;;;;;;;;;;;;;;;6.00;67.26;97166.34;5102504;28;19935;-63
2024/01/01 01:42:02;;;;;;;;;;;;;;;6.22;66.56;97169.13;5107665;28;19945;-63
2024/01/01 01:44:50;;;;;;;;;;;;;;;6.14;66.89;97172.53;5091695;28;20379;-63
2024/01/01 01:47:38;;;;;;;;;;;;;;;5.95;67.17;97161.03;5108258;28;19919;-63
2024/01/01 01:50:27;;;;;;;;;;;;;;;6.18;66.39;97157.34;5105915;28;19938;-63
2024/01/01 01:53:23;;;;;;;;;;;;;;;6.23;66.30;97159.13;5103772;28;19927;-62
2024/01/01 01:56:14;;;;;;;;;;;;;;;6.20;66.22;97165.13;5092205;28;20017;-63
2024/01/01 01:59:03;;;;;;;;;;;;;;;6.32;65.98;97156.53;5103726;27;20288;-64
2024/01/01 02:01:51;;;;;;;;;;;;;;;6.07;66.63;97150.53;5093050;28;19924;-62
2024/01/01 02:04:40;;;;;;;;;;;;;;;6.12;66.48;97136.97;5115774;27;20049;-63
2024/01/01 02:07:28;;;;;;;;;;;;;;;6.27;66.41;97144.75;5107563;28;19927;-62
2024/01/01 02:10:17;;;;;;;;;;;;;;;6.14;66.79;97137.47;5092363;28;19924;-63
2024/01/01 02:13:06;;;;;;;;;;;;;;;6.23;66.70;97135.69;5108362;28;20056;-63
2024/01/01 02:15:54;;;;;;;;;;;;;;;6.02;67.07;97127.22;5100096;28;19924;-62
2024/01/01 02:18:42;;;;;;;;;;;;;;;5.74;67.75;97125.56;5102757;28;19926;-63
2024/01/01 02:21:31;;;;;;;;;;;;;;;5.92;67.84;97132.00;5103012;27;19927;-62
2024/01/01 02:24:21;;;;;;;;;;;;;;;6.10;67.18;97133.78;5108296;28;19942;-62
2024/01/01 02:27:09;;;;;;;;;;;;;;;6.21;66.74;97140.56;5101442;28;20272;-63
2024/01/01 02:30:01;;;;;;;;;;;;;;;6.11;67.25;97139.97;5103889;28;20063;-63
2024/01/01 02:32:50;;;;;;;;;;;;;;;6.08;66.41;97152.16;5106731;28;19920;-62
2024/01/01 02:35:38;;;;;;;;;;;;;;;6.19;65.66;97147.38;5089591;28;19924;-63
2024/01/01 02:38:26;;;;;;;;;;;;;;;6.15;66.10;97149.84;5088410;28;19994;-63
2024/01/01 02:41:16;;;;;;;;;;;;;;;6.03;66.45;97154.97;5105012;28;19924;-62
2024/01/01 02:44:04;;;;;;;;;;;;;;;6.17;65.63;97153.03;5105296;28;19931;-62
2024/01/01 02:46:52;;;;;;;;;;;;;;;6.18;66.15;97146.56;5108180;28;19920;-63
2024/01/01 02:49:40;;;;;;;;;;;;;;;6.14;65.91;97145.56;5110382;28;19959;-62
2024/01/01 02:52:29;;;;;;;;;;;;;;;6.02;66.69;97146.09;5104830;28;19920;-62
2024/01/01 02:55:18;;;;;;;;;;;;;;;5.82;66.70;97159.13;5120161;27;20039;-62
2024/01/01 02:58:07;;;;;;;;;;;;;;;5.68;66.97;97162.59;5107171;27;20360;-63
2024/01/01 03:00:56;;;;;;;;;;;;;;;5.90;66.69;97150.31;5093836;28;19927;-62
2024/01/01 03:03:44;;;;;;;;;;;;;;;6.13;66.18;97153.97;5100969;28;19928;-62
2024/01/01 03:06:32;;;;;;;;;;;;;;;6.17;65.92;97161.13;5118926;27;19920;-63
2024/01/01 03:09:20;;;;;;;;;;;;;;;6.17;65.91;97155.75;5106068;28;19979;-63
2024/01/01 03:12:08;;;;;;;;;;;;;;;6.28;66.07;97165.25;5113025;27;19931;-62
2024/01/01 03:14:58;;;;;;;;;;;;;;;6.32;65.86;97161.94;5106994;28;20360;-62
2024/01/01 03:17:46;;;;;;;;;;;;;;;6.29;65.80;97157.94;5102025;28;19927;-62
2024/01/01 03:20:35;;;;;;;;;;;;;;;6.07;65.86;97157.84;5103606;27;19920;-62
2024/01/01 03:23:23;;;;;;;;;;;;;;;6.24;65.73;97149.97;5105078;27;19920;-62
2024/01/01 03:26:11;;;;;;;;;;;;;;;6.26;65.42;97153.94;5106138;27;19926;-63
2024/01/01 03:28:59;;;;;;;;;;;;;;;6.08;65.81;97145.97;5107156;28;19933;-63
2024/01/01 03:31:49;;;;;;;;;;;;;;;5.99;66.00;97152.06;5105102;27;19931;-62
2024/01/01 03:34:37;;;;;;;;;;;;;;;5.89;66.26;97146.84;5106087;28;19927;-62
2024/01/01 03:37:25;;;;;;;;;;;;;;;5.94;66.11;97145.97;5102985;27;19920;-62
2024/01/01 03:40:13;;;;;;;;;;;;;;;6.04;65.95;97157.34;5086685;28;19984;-62
2024/01/01 03:43:01;;;;;;;;;;;;;;;6.15;65.74;97155.25;5110890;27;20277;-62
2024/01/01 03:45:49;;;;;;;;;;;;;;;6.07;65.53;97152.44;5106750;28;19963;-63
2024/01/01 03:48:39;;;;;;;;;;;;;;;5.89;66.27;97151.44;5115168;27;20388;-62
2024/01/01 03:51:28;;;;;;;;;;;;;;;6.00;65.72;97155.56;5097507;27;20383;-63
2024/01/01 03:54:15;;;;;;;;;;;;;;;5.93;66.12;97165.94;5085463;28;19920;-63
2024/01/01 03:57:04;;;;;;;;;;;;;;;5.77;66.38;97163.50;5087818;27;19964;-62
2024/01/01 03:59:52;;;;;;;;;;;;;;;5.92;66.07;97162.47;5101346;27;19920;-63
2024/01/01 04:02:41;;;;;;;;;;;;;;;6.02;65.69;97158.75;5091338;28;20377;-63
2024/01/01 04:05:30;;;;;;;;;;;;;;;5.97;65.91;97146.19;5103599;28;19943;-62
2024/01/01 04:08:19;;;;;;;;;;;;;;;6.10;65.43;97170.75;5110916;27;19920;-62
2024/01/01 04:11:07;;;;;;;;;;;;;;;6.16;65.61;97175.72;5091786;28;19985;-63
2024/01/01 04:13:56;;;;;;;;;;;;;;;6.22;65.31;97169.13;5110053;27;19919;-63
2024/01/01 04:16:44;;;;;;;;;;;;;;;5.86;66.66;97171.72;5106085;27;19942;-63
2024/01/01 04:19:32;;;;;;;;;;;;;;;6.04;66.56;97168.13;5105281;28;20737;-62
2024/01/01 04:22:22;;;;;;;;;;;;;;;5.64;67.37;97166.97;5104018;28;19947;-63
2024/01/01 04:25:13;;;;;;;;;;;;;;;5.78;67.13;97165.09;5106378;28;19927;-62
2024/01/01 04:28:01;;;;;;;;;;;;;;;5.68;67.14;97162.59;5105611;28;19920;-62
2024/01/01 04:30:49;;;;;;;;;;;;;;;5.72;66.56;97160.91;5103594;28;19920;-62
2024/01/01 04:33:37;;;;;;;;;;;;;;;5.94;66.92;97156.75;5101418;28;20382;-62
2024/01/01 04:36:26;;;;;;;;;;;;;;;5.89;66.58;97170.31;5097110;28;20017;-63
2024/01/01 04:39:15;;;;;;;;;;;;;;;5.75;67.18;97154.94;5101140;28;20389;-62
2024/01/01 04:42:04;;;;;;;;;;;;;;;5.88;66.95;97168.72;5103115;28;19920;-62
2024/01/01 04:44:52;;;;;;;;;;;;;;;5.98;66.98;97165.84;5099475;28;19943;-63
2024/01/01 04:47:40;;;;;;;;;;;;;;;5.90;68.08;97183.47;5096333;28;19924;-62
2024/01/01 04:50:28;;;;;;;;;;;;;;;5.83;67.73;97182.28;5096632;28;19920;-63
2024/01/01 04:53:16;;;;;;;;;;;;;;;5.62;68.23;97182.66;5103743;28;19986;-62
2024/01/01 04:56:06;;;;;;;;;;;;;;;5.72;68.57;97181.66;5095450;28;20311;-62
2024/01/01 04:58:54;;;;;;;;;;;;;;;5.72;68.19;97171.69;5091753;27;19923;-62
2024/01/01 05:01:43;;;;;;;;;;;;;;;5.43;69.01;97174.63;5101386;27;20391;-63
2024/01/01 05:04:31;;;;;;;;;;;;;;;5.66;68.12;97177.47;5110709;28;19920;-62
2024/01/01 05:07:19;;;;;;;;;;;;;;;5.72;68.12;97177.06;5106302;28;19920;-62
2024/01/01 05:10:07;;;;;;;;;;;;;;;5.60;68.42;97176.75;5105448;28;19931;-62
2024/01/01 05:12:57;;;;;;;;;;;;;;;5.93;68.20;97179.44;5105676;27;20285;-63
2024/01/01 05:15:45;;;;;;;;;;;;;;;6.14;67.36;97174.44;5101023;28;19927;-63
2024/01/01 05:18:33;;;;;;;;;;;;;;;6.36;66.17;97173.72;5108008;27;19927;-63
2024/01/01 05:21:21;;;;;;;;;;;;;;;6.35;66.78;97167.53;5098661;27;19920;-63
2024/01/01 05:24:09;;;;;;;;;;;;;;;6.27;65.92;97170.91;5103849;27;20105;-62
2024/01/01 05:26:57;;;;;;;;;;;;;;;6.16;66.43;97169.53;5102796;28;19931;-63
2024/01/01 05:29:47;;;;;;;;;;;;;;;6.39;65.26;97181.19;5106617;27;20352;-62
2024/01/01 05:32:35;;;;;;;;;;;;;;;6.20;66.07;97184.81;5107796;28;19931;-62
2024/01/01 05:35:23;;;;;;;;;;;;;;;6.27;65.49;97187.09;5100473;27;20018;-63
2024/01/01 05:38:12;;;;;;;;;;;;;;;6.27;65.18;97193.28;5098042;28;20085;-62
2024/01/01 05:41:00;;;;;;;;;;;;;;;6.26;65.31;97196.31;5104163;28;19920;-62
2024/01/01 05:43:49;;;;;;;;;;;;;;;6.01;65.95;97195.69;5109299;27;20272;-62
2024/01/01 05:46:38;;;;;;;;;;;;;;;6.27;65.36;97201.38;5106973;27;20029;-63
2024/01/01 05:49:26;;;;;;;;;;;;;;;6.67;64.32;97201.66;5109437;27;19971;-62
2024/01/01 05:52:17;;;;;;;;;;;;;;;6.71;64.35;97205.34;5110279;27;19920;-62
2024/01/01 05:55:05;;;;;;;;;;;;;;;6.51;63.92;97208.47;5110561;27;19920;-62
2024/01/01 05:57:54;;;;;;;;;;;;;;;6.43;64.72;97203.78;5103746;27;20374;-63
2024/01/01 06:00:42;;;;;;;;;;;;;;;6.51;64.76;97200.38;5099905;27;19924;-63
2024/01/01 06:03:31;;;;;;;;;;;;;;;6.17;65.83;97206.19;5117105;27;19919;-62
2024/01/01 06:06:19;;;;;;;;;;;;;;;5.88;66.60;97209.16;5106971;27;19920;-62
2024/01/01 06:09:07;;;;;;;;;;;;;;;6.02;65.96;97210.00;5101151;27;19928;-62
2024/01/01 06:11:55;;;;;;;;;;;;;;;6.11;65.88;97216.28;5102624;27;19932;-61
2024/01/01 06:14:43;;;;;;;;;;;;;;;6.52;64.46;97220.88;5099359;27;19928;-61
2024/01/01 06:17:31;;;;;;;;;;;;;;;6.34;65.47;97219.06;5103356;27;19920;-61
2024/01/01 06:20:21;;;;;;;;;;;;;;;6.34;65.10;97219.88;5104634;28;19924;-61
2024/01/01 06:23:09;;;;;;;;;;;;;;;6.58;64.41;97222.34;5103555;28;19931;-62
2024/01/01 06:25:57;;;;;;;;;;;;;;;6.26;65.60;97224.06;5102940;28;20431;-61
2024/01/01 06:28:46;;;;;;;;;;;;;;;6.52;65.07;97220.88;5101860;27;20368;-62
2024/01/01 06:31:34;;;;;;;;;;;;;;;6.77;64.06;97227.63;5101683;27;19920;-62
2024/01/01 06:34:22;;;;;;;;;;;;;;;6.79;63.41;97226.22;5103960;28;19955;-62
2024/01/01 06:37:12;;;;;;;;;;;;;;;6.35;64.77;97232.28;5095825;28;19920;-62
2024/01/01 06:40:04;;;;;;;;;;;;;;;6.49;65.20;97226.84;5095015;27;19927;-62
2024/01/01 06:42:52;;;;;;;;;;;;;;;6.75;64.07;97224.44;5101740;28;19920;-63
2024/01/01 06:45:40;;;;;;;;;;;;;;;6.40;64.85;97228.69;5104915;27;19926;-62
2024/01/01 06:48:28;;;;;;;;;;;;;;;6.78;63.58;97235.44;5100056;27;20002;-62
2024/01/01 06:51:17;;;;;;;;;;;;;;;6.45;64.76;97232.06;5102374;28;20042;-62
2024/01/01 06:54:06;;;;;;;;;;;;;;;6.29;65.49;97238.88;5106120;28;19926;-61
2024/01/01 06:56:54;;;;;;;;;;;;;;;6.69;64.25;97241.84;5104457;27;19924;-62
2024/01/01 06:59:42;;;;;;;;;;;;;;;6.77;64.07;97241.13;5104772;28;19927;-61
2024/01/01 07:02:30;;;;;;;;;;;;;;;6.71;64.01;97240.44;5100347;28;19920;-61
2024/01/01 07:05:19;;;;;;;;;;;;;;;6.85;63.43;97234.22;5095031;28;19947;-61
2024/01/01 07:08:07;;;;;;;;;;;;;;;6.71;64.34;97237.75;5104365;28;19920;-62
2024/01/01 07:10:57;;;;;;;;;;;;;;;6.57;64.13;97239.66;5103134;28;19927;-62
2024/01/01 07:13:45;;;;;;;;;;;;;;;6.80;63.71;97237.81;5096419;28;19959;-61
2024/01/01 07:16:34;;;;;;;;;;;;;;;6.70;64.25;97246.13;5102714;28;20107;-61
2024/01/01 07:19:22;;;;;;;;;;;;;;;6.97;63.57;97253.38;5095566;28;19927;-61
2024/01/01 07:22:10;;;;;;;;;;;;;;;6.92;63.27;97251.59;5099453;28;19936;-61
2024/01/01 07:24:58;;;;;;;;;;;;;;;6.77;63.70;97260.84;5105766;28;19930;-61
2024/01/01 07:27:48;;;;;;;;;;;;;;;6.87;63.66;97265.22;5101279;27;19927;-62
2024/01/01 07:30:35;;;;;;;;;;;;;;;6.57;64.68;97259.34;5104832;27;19935;-61
2024/01/01 07:33:24;;;;;;;;;;;;;;;6.62;64.46;97246.84;5096873;28;19927;-61
2024/01/01 07:36:12;;;;;;;;;;;;;;;6.76;64.27;97256.50;5100184;27;19923;-61
2024/01/01 07:39:00;;;;;;;;;;;;;;;6.68;64.39;97257.22;5102123;28;19919;-61
2024/01/01 07:41:48;;;;;;;;;;;;;;;6.44;64.69;97254.72;5101477;27;19923;-61
2024/01/01 07:44:37;;;;;;;;;;;;;;;6.49;64.60;97257.34;5101528;28;19988;-60
2024/01/01 07:47:26;;;;;;;;;;;;;;;6.36;64.74;97260.84;5101216;28;19920;-60
2024/01/01 07:50:14;;;;;;;;;;;;;;;6.39;64.80;97264.84;5103553;28;20268;-61
2024/01/01 07:53:05;;;;;;;;;;;;;;;6.21;65.51;97261.94;5098450;28;19920;-62
2024/01/01 07:55:53;;;;;;;;;;;;;;;6.49;64.26;97259.22;5103205;27;19920;-61
2024/01/01 07:58:41;;;;;;;;;;;;;;;6.44;64.73;97262.84;5098960;28;19984;-61
2024/01/01 08:01:30;;;;;;;;;;;;;;;6.47;64.49;97266.84;5104558;28;19975;-62
2024/01/01 08:04:18;;;;;;;;;;;;;;;6.67;64.00;97261.03;5106109;27;19939;-61
2024/01/01 08:07:07;;;;;;;;;;;;;;;6.71;63.51;97266.63;5107336;27;19927;-61
2024/01/01 08:09:54;;;;;;;;;;;;;;;6.74;63.65;97272.22;5103128;28;19923;-62
2024/01/01 08:12:43;;;;;;;;;;;;;;;6.55;63.98;97288.53;5098174;27;19926;-62
2024/01/01 08:15:31;;;;;;;;;;;;;;;6.53;64.04;97295.31;5107949;28;19927;-61
2024/01/01 08:18:24;;;;;;;;;;;;;;;6.64;63.68;97293.22;5102935;28;20041;-62
2024/01/01 08:21:12;;;;;;;;;;;;;;;6.88;63.41;97293.03;5106718;27;19927;-62
2024/01/01 08:24:00;;;;;;;;;;;;;;;6.95;63.10;97290.69;5105699;28;19920;-61
2024/01/01 08:26:48;;;;;;;;;;;;;;;6.80;63.00;97289.09;5102351;28;20073;-62
2024/01/01 08:29:36;;;;;;;;;;;;;;;6.95;62.63;97293.41;5103704;28;19955;-62
2024/01/01 08:32:24;;;;;;;;;;;;;;;6.98;62.41;97296.31;5104352;28;19920;-62
2024/01/01 08:35:15;;;;;;;;;;;;;;;6.82;62.88;97292.31;5108484;28;20473;-61
2024/01/01 08:38:03;;;;;;;;;;;;;;;6.86;63.02;97295.19;5105813;28;20433;-62
2024/01/01 08:40:54;;;;;;;;;;;;;;;6.99;62.83;97289.00;5106979;28;19932;-62
2024/01/01 08:43:50;;;;;;;;;;;;;;;6.95;62.01;97288.78;5109544;27;21272;-61
2024/01/01 08:46:38;;;;;;;;;;;;;;;7.42;60.85;97300.19;5104766;28;19924;-61
2024/01/01 08:49:26;;;;;;;;;;;;;;;7.30;61.04;97308.84;5102677;28;20292;-61
2024/01/01 08:52:15;;;;;;;;;;;;;;;7.29;60.81;97301.81;5107934;28;19976;-62
2024/01/01 08:55:04;;;;;;;;;;;;;;;7.28;60.85;97308.31;5097029;28;19935;-60
2024/01/01 08:57:52;;;;;;;;;;;;;;;7.41;60.97;97308.59;5108121;28;19919;-60
2024/01/01 09:00:40;;;;;;;;;;;;;;;7.10;61.29;97314.69;5106238;28;19949;-59
2024/01/01 09:03:28;;;;;;;;;;;;;;;7.31;60.89;97312.34;5097686;28;20017;-60
2024/01/01 09:06:16;;;;;;;;;;;;;;;7.37;60.82;97321.91;5101834;28;19931;-60
2024/01/01 09:09:08;;;;;;;;;;;;;;;7.28;60.82;97324.53;5103738;28;19919;-61
2024/01/01 09:11:56;;;;;;;;;;;;;;;7.24;60.62;97320.84;5102152;28;19932;-60
2024/01/01 09:14:44;;;;;;;;;;;;;;;7.46;59.72;97325.50;5099113;28;19920;-60
2024/01/01 09:17:32;;;;;;;;;;;;;;;7.35;59.70;97324.94;5107031;28;19930;-60
2024/01/01 09:20:22;;;;;;;;;;;;;;;7.28;60.32;97326.44;5104957;28;19935;-60
2024/01/01 09:23:11;;;;;;;;;;;;;;;7.38;59.91;97328.91;5103740;28;20276;-59
2024/01/01 09:26:00;;;;;;;;;;;;;;;7.15;60.88;97341.59;5105175;28;20083;-60
2024/01/01 09:28:50;;;;;;;;;;;;;;;7.18;60.49;97335.56;5105997;28;19931;-60
2024/01/01 09:31:38;;;;;;;;;;;;;;;7.46;59.26;97338.22;5106826;28;20374;-60
2024/01/01 09:34:26;;;;;;;;;;;;;;;7.54;58.86;97335.56;5096679;28;20345;-59
2024/01/01 09:37:14;;;;;;;;;;;;;;;7.46;59.04;97324.72;5107131;28;19988;-60
2024/01/01 09:40:02;;;;;;;;;;;;;;;7.58;58.93;97327.66;5103231;28;19926;-60
2024/01/01 09:42:52;;;;;;;;;;;;;;;7.67;58.69;97342.06;5100415;28;19924;-59
2024/01/01 09:45:40;;;;;;;;;;;;;;;7.72;58.29;97336.50;5107459;28;19931;-59
2024/01/01 09:48:28;;;;;;;;;;;;;;;7.94;57.62;97329.53;5105846;28;19927;-60
2024/01/01 09:51:20;;;;;;;;;;;;;;;8.07;57.68;97344.88;5106532;27;19924;-61
2024/01/01 09:54:09;;;;;;;;;;;;;;;7.62;58.16;97336.78;5095048;28;19919;-59
2024/01/01 09:56:57;;;;;;;;;;;;;;;7.61;58.75;97335.16;5111732;27;20434;-60
2024/01/01 09:59:46;;;;;;;;;;;;;;;7.97;57.68;97339.72;5111514;28;19927;-60
2024/01/01 10:02:34;;;;;;;;;;;;;;;7.97;58.08;97328.91;5105750;27;19920;-60
2024/01/01 10:05:22;;;;;;;;;;;;;;;7.95;57.24;97331.13;5105267;27;19938;-60
2024/01/01 10:08:11;;;;;;;;;;;;;;;8.16;56.95;97334.13;5102593;28;19919;-61
2024/01/01 10:10:59;;;;;;;;;;;;;;;8.40;55.60;97332.69;5105135;27;19934;-62
2024/01/01 10:13:49;;;;;;;;;;;;;;;8.60;55.74;97328.63;5104368;27;19920;-60
2024/01/01 10:16:39;;;;;;;;;;;;;;;8.43;55.67;97330.47;5100276;27;19927;-60
2024/01/01 10:19:28;;;;;;;;;;;;;;;8.63;55.60;97319.09;5098095;27;20010;-60
2024/01/01 10:22:18;;;;;;;;;;;;;;;8.65;55.21;97314.16;5101604;28;20706;-61
2024/01/01 10:25:31;;;;;;;;;;;;;;;8.52;55.49;97309.63;5102088;28;19948;-60
2024/01/01 10:28:24;;;;;;;;;;;;;;;8.45;56.27;97312.00;5101093;28;20537;-60
2024/01/01 10:31:14;;;;;;;;;;;;;;;8.60;55.46;97303.47;5097166;28;20279;-60
2024/01/01 10:34:03;;;;;;;;;;;;;;;9.00;54.63;97301.53;5104336;27;19926;-60
2024/01/01 10:36:51;;;;;;;;;;;;;;;9.06;54.11;97304.88;5099105;28;20237;-60
2024/01/01 10:39:40;;;;;;;;;;;;;;;8.94;53.90;97310.91;5105204;28;19920;-61
2024/01/01 10:42:31;;;;;;;;;;;;;;;9.11;53.99;97302.03;5104414;27;20498;-60
2024/01/01 10:45:20;;;;;;;;;;;;;;;9.11;53.60;97307.44;5099783;28;20395;-60
2024/01/01 10:48:08;;;;;;;;;;;;;;;8.99;53.78;97309.94;5097754;28;19919;-60
2024/01/01 10:51:04;;;;;;;;;;;;;;;8.86;54.26;97314.41;5100661;27;19924;-60
2024/01/01 10:54:00;;;;;;;;;;;;;;;8.90;54.44;97316.16;5116430;27;19920;-60
2024/01/01 10:56:52;;;;;;;;;;;;;;;9.07;54.75;97322.75;5100439;27;19924;-59
2024/01/01 10:59:43;;;;;;;;;;;;;;;8.88;53.99;97318.38;5111279;28;19931;-60
2024/01/01 11:02:30;;;;;;;;;;;;;;;9.02;53.55;97320.16;5106433;27;19919;-60
2024/01/01 11:05:19;;;;;;;;;;;;;;;8.84;54.01;97309.31;5106629;28;20237;-59
2024/01/01 11:08:09;;;;;;;;;;;;;;;9.13;53.99;97316.84;5101816;28;20002;-59
2024/01/01 11:10:58;;;;;;;;;;;;;;;9.09;54.88;97312.38;5110395;28;19942;-60
2024/01/01 11:13:53;;;;;;;;;;;;;;;8.87;54.83;97316.78;5101537;27;19928;-61
2024/01/01 11:17:06;;;;;;;;;;;;;;;8.72;55.35;97300.94;5103841;27;19932;-60
2024/01/01 11:19:55;;;;;;;;;;;;;;;8.93;54.15;97310.09;5097741;27;21433;-61
2024/01/01 11:22:45;;;;;;;;;;;;;;;8.74;54.96;97315.00;5098588;27;19927;-60
2024/01/01 11:25:36;;;;;;;;;;;;;;;8.57;54.24;97302.16;5100586;27;19934;-61
2024/01/01 11:28:38;;;;;;;;;;;;;;;8.99;53.83;97299.13;5103138;27;19923;-62
2024/01/01 11:31:26;;;;;;;;;;;;;;;8.98;53.53;97302.94;5098665;27;19976;-60
2024/01/01 11:34:16;;;;;;;;;;;;;;;9.12;52.45;97303.63;5105746;27;19949;-60
2024/01/01 11:37:19;;;;;;;;;;;;;;;8.76;53.76;97311.97;5105536;27;19999;-62
2024/01/01 11:40:07;;;;;;;;;;;;;;;8.91;53.66;97315.03;5119589;27;19938;-60
2024/01/01 11:43:05;;;;;;;;;;;;;;;8.95;52.55;97306.28;5098704;27;20021;-61
2024/01/01 11:45:54;;;;;;;;;;;;;;;9.14;53.04;97306.81;5112928;27;19919;-62
2024/01/01 11:48:54;;;;;;;;;;;;;;;9.16;51.72;97304.56;5100990;27;19931;-60
2024/01/01 11:51:50;;;;;;;;;;;;;;;9.25;51.70;97307.28;5107189;27;19931;-60
2024/01/01 11:54:38;;;;;;;;;;;;;;;9.11;51.37;97310.94;5111019;27;19959;-61
2024/01/01 11:57:27;;;;;;;;;;;;;;;9.02;51.46;97304.72;5100959;27;19920;-60
2024/01/01 12:00:17;;;;;;;;;;;;;;;9.06;50.89;97326.56;5107072;27;19967;-60
2024/01/01 12:03:05;;;;;;;;;;;;;;;9.11;50.50;97318.28;5107414;27;19981;-60
2024/01/01 12:06:01;;;;;;;;;;;;;;;9.22;50.71;97313.38;5105388;27;20057;-61
2024/01/01 12:08:50;;;;;;;;;;;;;;;9.50;50.33;97319.28;5101700;28;20453;-61
2024/01/01 12:11:38;;;;;;;;;;;;;;;9.60;49.72;97313.56;5104468;27;20007;-61
2024/01/01 12:14:26;;;;;;;;;;;;;;;9.42;49.65;97318.94;5105683;28;19931;-61
2024/01/01 12:17:16;;;;;;;;;;;;;;;9.35;50.13;97313.22;5098347;28;19920;-61
2024/01/01 12:20:09;;;;;;;;;;;;;;;9.67;49.87;97317.38;5101466;27;20012;-61
2024/01/01 12:23:11;;;;;;;;;;;;;;;9.76;49.26;97311.16;5101658;27;20680;-61
2024/01/01 12:26:03;;;;;;;;;;;;;;;9.52;49.90;97317.03;5099325;27;20029;-61
2024/01/01 12:29:10;;;;;;;;;;;;;;;9.39;49.98;97308.75;5098994;28;19928;-61
2024/01/01 12:31:58;;;;;;;;;;;;;;;9.54;49.61;97304.78;5097965;28;19973;-61
2024/01/01 12:34:47;;;;;;;;;;;;;;;9.78;49.59;97298.06;5101352;28;19920;-60
2024/01/01 12:37:35;;;;;;;;;;;;;;;9.45;50.60;97293.91;5094658;28;19924;-60
2024/01/01 12:40:28;;;;;;;;;;;;;;;9.54;50.00;97306.69;5097531;28;19924;-60
2024/01/01 12:43:17;;;;;;;;;;;;;;;9.70;50.09;97305.09;5100621;28;19976;-61
2024/01/01 12:46:07;;;;;;;;;;;;;;;9.57;51.42;97317.69;5098028;28;19928;-61
2024/01/01 12:48:55;;;;;;;;;;;;;;;9.54;50.83;97315.63;5100279;28;19982;-60
2024/01/01 12:51:44;;;;;;;;;;;;;;;9.59;50.65;97322.81;5101257;28;19935;-60
2024/01/01 12:54:35;;;;;;;;;;;;;;;9.28;51.69;97328.34;5103898;28;19989;-60
2024/01/01 12:57:23;;;;;;;;;;;;;;;9.31;52.05;97322.28;5104432;28;19928;-60
2024/01/01 13:00:11;;;;;;;;;;;;;;;9.10;52.63;97324.78;5103852;28;20372;-60
2024/01/01 13:03:00;;;;;;;;;;;;;;;9.23;52.79;97318.47;5104824;28;19932;-60
2024/01/01 13:05:48;;;;;;;;;;;;;;;9.28;52.44;97314.81;5104522;28;20368;-60
2024/01/01 13:08:38;;;;;;;;;;;;;;;9.42;52.80;97316.22;5104894;28;19919;-60
2024/01/01 13:11:26;;;;;;;;;;;;;;;9.52;52.44;97331.41;5104281;28;20258;-60
2024/01/01 13:14:14;;;;;;;;;;;;;;;9.39;53.52;97324.22;5102118;28;19928;-60
2024/01/01 13:17:04;;;;;;;;;;;;;;;9.35;53.24;97323.25;5103534;28;21632;-60
2024/01/01 13:19:54;;;;;;;;;;;;;;;9.19;53.04;97317.50;5105778;27;19924;-60
2024/01/01 13:22:42;;;;;;;;;;;;;;;9.18;52.91;97319.41;5106075;27;19931;-60
2024/01/01 13:25:31;;;;;;;;;;;;;;;9.37;52.65;97321.00;5097306;27;19994;-60
2024/01/01 13:28:21;;;;;;;;;;;;;;;9.38;52.40;97323.44;5104885;28;20057;-60
2024/01/01 13:31:10;;;;;;;;;;;;;;;9.29;52.16;97319.91;5103899;27;19952;-60
2024/01/01 13:33:58;;;;;;;;;;;;;;;9.27;52.07;97324.84;5101940;28;20084;-60
2024/01/01 13:36:47;;;;;;;;;;;;;;;8.99;53.24;97323.50;5095612;27;19920;-60
2024/01/01 13:39:36;;;;;;;;;;;;;;;9.12;53.04;97319.88;5101602;27;19987;-60
2024/01/01 13:42:25;;;;;;;;;;;;;;;9.16;52.55;97315.41;5098235;27;19919;-60
2024/01/01 13:45:13;;;;;;;;;;;;;;;9.17;52.25;97312.41;5108631;27;19930;-60
2024/01/01 13:48:10;;;;;;;;;;;;;;;9.03;52.93;97319.06;5103073;28;20104;-60
2024/01/01 13:50:58;;;;;;;;;;;;;;;9.23;52.61;97323.88;5097374;28;20246;-59
2024/01/01 13:53:48;;;;;;;;;;;;;;;9.27;52.46;97329.44;5103577;28;19926;-60
2024/01/01 13:56:36;;;;;;;;;;;;;;;9.38;52.81;97318.00;5081660;28;19927;-60
2024/01/01 13:59:25;;;;;;;;;;;;;;;9.48;51.60;97324.22;5102190;28;19924;-61
2024/01/01 14:02:19;;;;;;;;;;;;;;;9.58;51.27;97332.03;5105406;27;19970;-60
2024/01/01 14:05:07;;;;;;;;;;;;;;;9.50;51.23;97330.13;5109483;28;19923;-60
2024/01/01 14:07:56;;;;;;;;;;;;;;;9.63;51.25;97327.25;5104850;27;20669;-61
2024/01/01 14:10:44;;;;;;;;;;;;;;;9.59;51.16;97331.75;5110827;27;19920;-60
2024/01/01 14:13:32;;;;;;;;;;;;;;;9.58;50.95;97326.59;5111088;27;19926;-60
2024/01/01 14:16:22;;;;;;;;;;;;;;;9.45;51.45;97326.44;5103646;27;20360;-60
2024/01/01 14:19:10;;;;;;;;;;;;;;;9.55;51.08;97322.63;5104459;27;20001;-60
2024/01/01 14:21:58;;;;;;;;;;;;;;;9.44;51.61;97327.56;5097420;27;19982;-60
2024/01/01 14:24:46;;;;;;;;;;;;;;;9.52;51.45;97325.19;5106599;27;20048;-60
2024/01/01 14:27:35;;;;;;;;;;;;;;;9.40;51.88;97328.53;5106488;27;20272;-60
2024/01/01 14:30:23;;;;;;;;;;;;;;;9.25;51.78;97335.19;5106124;27;20020;-60
2024/01/01 14:33:12;;;;;;;;;;;;;;;9.30;52.40;97326.13;5103767;27;19927;-60
2024/01/01 14:36:00;;;;;;;;;;;;;;;9.27;52.87;97338.41;5112640;27;20280;-60
2024/01/01 14:38:49;;;;;;;;;;;;;;;8.79;54.07;97336.53;5098495;27;20322;-60
2024/01/01 14:41:39;;;;;;;;;;;;;;;9.13;53.26;97332.31;5107919;27;19927;-60
2024/01/01 14:44:27;;;;;;;;;;;;;;;9.08;53.78;97335.16;5110104;28;19923;-60
2024/01/01 14:47:15;;;;;;;;;;;;;;;8.97;54.00;97336.56;5093227;27;19932;-60
2024/01/01 14:50:05;;;;;;;;;;;;;;;9.16;53.62;97337.09;5092958;27;19924;-61
2024/01/01 14:52:53;;;;;;;;;;;;;;;8.96;54.39;97349.31;5101217;27;20442;-60